Predator — D5NE4 — position and weather

sailwx.info

Track history (hours):
 
Tides and Currents Weather Stations Pressure Air Temp Water Temp Dewpoint Dewpoint Depression Visibility Wind Speed Wind Dir Waves Ship Positions

Predator

Last reported at 2018-Jan-09 05:31 UTC. Time now 2018-Jan-19 17:43 UTC.
Position N 34°51' E 028°32'.
Warning: this ship's position is 10 days out of date.

Length 170 m; draft 9.8 m.

Type: Cargo ship. MMSI: 636017887.

Date/timePositionNaut miles runAvg speedWind from/ knotsBaromVisibWave heightAir tempDewpointWater temp
2018-Jan-09 05:31N 34°51' E 028°32'012.5
2018-Jan-09 05:30N 34°52' E 028°32'612.8
2018-Jan-09 05:00N 34°57' E 028°27'3612.6
2018-Jan-09 02:07N 35°24' E 027°57'112.7
2018-Jan-09 02:00N 35°25' E 027°56'712.7
2018-Jan-09 01:29N 35°30' E 027°51'812.7
2018-Jan-09 00:51N 35°36' E 027°44'512.6
2018-Jan-09 00:29N 35°39' E 027°40'6912.7
2018-Jan-08 19:03N 36°31' E 026°43'112.7
2018-Jan-08 19:00N 36°31' E 026°43'612.2
2018-Jan-08 18:28N 36°36' E 026°37'612.4
2018-Jan-08 18:00N 36°40' E 026°32'612.2
2018-Jan-08 17:30N 36°44' E 026°27'612.7
2018-Jan-08 17:00N 36°49' E 026°22'612.6
2018-Jan-08 16:30N 36°54' E 026°17'612.7
2018-Jan-08 16:00N 36°59' E 026°12'612.4
2018-Jan-08 15:30N 37°05' E 026°08'612.6
2018-Jan-08 15:00N 37°10' E 026°05'612.5
2018-Jan-08 14:30N 37°15' E 026°01'612.5
2018-Jan-08 14:00N 37°21' E 025°57'612.8
2018-Jan-08 13:30N 37°27' E 025°54'612.6
2018-Jan-08 13:00N 37°33' E 025°51'612.8
2018-Jan-08 12:30N 37°38' E 025°47'612.8
2018-Jan-08 12:00N 37°44' E 025°43'612.7
2018-Jan-08 11:30N 37°50' E 025°40'612.5
2018-Jan-08 11:00N 37°55' E 025°36'612.6
2018-Jan-08 10:30N 38°01' E 025°33'612.6
2018-Jan-08 10:00N 38°06' E 025°29'612.5
2018-Jan-08 09:30N 38°12' E 025°26'311 8.0
2018-Jan-06 18:33N 41°54' E 030°10'112.6
2018-Jan-06 18:30N 41°55' E 030°11'712.5
2018-Jan-06 17:59N 41°57' E 030°19'612.6
2018-Jan-06 17:30N 41°60' E 030°26'612.6
2018-Jan-06 17:00N 42°02' E 030°34'612.4
2018-Jan-06 16:30N 42°05' E 030°41'612.4
2018-Jan-06 16:00N 42°08' E 030°49'612.4
2018-Jan-06 15:29N 42°11' E 030°56'2413.1
2018-Jan-06 13:39N 42°21' E 031°26'213.4
2018-Jan-06 13:30N 42°22' E 031°28'713.0
2018-Jan-06 12:57N 42°25' E 031°37'1412.7
2018-Jan-06 11:50N 42°31' E 031°54'412.4
2018-Jan-06 11:30N 42°33' E 031°59'26312.6
2018-Jan-05 14:33N 44°27' E 037°27'412.5
2018-Jan-05 14:16N 44°28' E 037°31'312.4
2018-Jan-05 14:00N 44°30' E 037°35'612.5
2018-Jan-05 13:30N 44°32' E 037°43'612.4
2018-Jan-05 13:00N 44°37' E 037°49'4 7.0
2018-Jan-05 12:30N 44°40' E 037°51'0 0.7
2018-Jan-05 11:59N 44°41' E 037°51'0 0.1
2018-Jan-05 11:29N 44°41' E 037°51'0 0.0
2018-Jan-05 10:59N 44°41' E 037°51'0 0.1
2018-Jan-05 10:29N 44°41' E 037°51'0 0.1
2018-Jan-05 09:59N 44°41' E 037°51'0 0.1
2018-Jan-05 09:29N 44°41' E 037°51'0 0.1
2018-Jan-05 08:59N 44°41' E 037°51'0 0.1
2018-Jan-05 08:29N 44°41' E 037°51'0 0.0
2018-Jan-05 07:59N 44°41' E 037°51'0 0.0
2018-Jan-05 07:29N 44°41' E 037°51'0 0.1
2018-Jan-05 06:59N 44°41' E 037°51'0 0.0
2018-Jan-05 06:26N 44°41' E 037°51'0 0.0
2018-Jan-05 05:59N 44°41' E 037°51'0 0.1
2018-Jan-05 05:30N 44°41' E 037°51'0 0.1
2018-Jan-05 05:01N 44°41' E 037°51'0 0.1
2018-Jan-05 04:31N 44°41' E 037°51'0 0.2
2018-Jan-05 04:01N 44°41' E 037°51'0 0.2
2018-Jan-05 03:30N 44°41' E 037°51'2 4.3
2018-Jan-05 03:01N 44°42' E 037°49'2 3.6
2018-Jan-05 02:31N 44°44' E 037°47'0 0.2
2018-Jan-05 01:59N 44°44' E 037°47'0 0.0
2018-Jan-05 01:29N 44°44' E 037°47'0 0.0
2018-Jan-05 00:59N 44°44' E 037°47'0 0.0
2018-Jan-05 00:29N 44°44' E 037°47'0 0.0
2018-Jan-04 23:59N 44°44' E 037°47'0 0.0
2018-Jan-04 23:29N 44°44' E 037°47'0 0.0
2018-Jan-04 22:59N 44°44' E 037°47'0 0.0
2018-Jan-04 22:29N 44°44' E 037°47'0 0.0
2018-Jan-04 21:59N 44°44' E 037°47'0 0.0
2018-Jan-04 21:29N 44°44' E 037°47'0 0.0
2018-Jan-04 20:59N 44°44' E 037°47'0 0.0
2018-Jan-04 20:29N 44°44' E 037°47'0 0.0
2018-Jan-04 19:59N 44°44' E 037°47'0 0.0
2018-Jan-04 19:29N 44°44' E 037°47'0 0.0
2018-Jan-04 18:59N 44°44' E 037°47'0 0.0
2018-Jan-04 18:29N 44°44' E 037°47'0 0.0
2018-Jan-04 17:59N 44°44' E 037°47'0 0.0
2018-Jan-04 17:29N 44°44' E 037°47'0 0.0
2018-Jan-04 16:59N 44°44' E 037°47'0 0.0
2018-Jan-04 16:29N 44°44' E 037°47'0 0.0
2018-Jan-04 15:59N 44°44' E 037°47'0 0.0
2018-Jan-04 15:29N 44°44' E 037°47'0 0.0
2018-Jan-04 14:59N 44°44' E 037°47'0 0.0
2018-Jan-04 14:29N 44°44' E 037°47'0 0.0
2018-Jan-04 13:59N 44°44' E 037°47'0 0.0
2018-Jan-04 13:29N 44°44' E 037°47'0 0.0
2018-Jan-04 12:59N 44°44' E 037°47'0 0.0
2018-Jan-04 12:29N 44°44' E 037°47'0 0.0
2018-Jan-04 11:59N 44°44' E 037°47'0 0.0
2018-Jan-04 11:29N 44°44' E 037°47'0 0.0
2018-Jan-04 10:59N 44°44' E 037°47'0 0.0
2018-Jan-04 10:29N 44°44' E 037°47'0 0.0
2018-Jan-04 09:59N 44°44' E 037°47'0 0.0
2018-Jan-04 09:29N 44°44' E 037°47'0 0.0
2018-Jan-04 08:59N 44°44' E 037°47'0 0.0
2018-Jan-04 08:29N 44°44' E 037°47'0 0.0
2018-Jan-04 07:59N 44°44' E 037°47'0 0.0
2018-Jan-04 07:26N 44°44' E 037°47'0 0.0
2018-Jan-04 06:59N 44°44' E 037°47'0 0.0
2018-Jan-04 06:29N 44°44' E 037°47'0 0.0
2018-Jan-04 05:59N 44°44' E 037°47'0 0.0
2018-Jan-04 05:29N 44°44' E 037°47'0 0.0
2018-Jan-04 04:59N 44°44' E 037°47'0 0.0
2018-Jan-04 04:29N 44°44' E 037°47'0 0.0
2018-Jan-04 03:59N 44°44' E 037°47'0 0.0
2018-Jan-04 03:29N 44°44' E 037°47'0 0.0
2018-Jan-04 02:59N 44°44' E 037°47'0 0.0
2018-Jan-04 02:29N 44°44' E 037°47'0 0.0
2018-Jan-04 01:38N 44°44' E 037°47'0 0.0
2018-Jan-04 01:29N 44°44' E 037°47'0 0.0
2018-Jan-04 00:59N 44°44' E 037°47'0 0.0
2018-Jan-04 00:29N 44°44' E 037°47'0 0.0
2018-Jan-03 23:59N 44°44' E 037°47'0 0.0
2018-Jan-03 23:29N 44°44' E 037°47'0 0.0
2018-Jan-03 22:59N 44°44' E 037°47'0 0.0
2018-Jan-03 22:29N 44°44' E 037°47'0 0.0
2018-Jan-03 21:59N 44°44' E 037°47'0 0.0
2018-Jan-03 21:29N 44°44' E 037°47'0 0.0
2018-Jan-03 20:59N 44°44' E 037°47'0 0.0
2018-Jan-03 20:29N 44°44' E 037°47'0 0.0
2018-Jan-03 19:59N 44°44' E 037°47'0 0.0
2018-Jan-03 19:29N 44°44' E 037°47'0 0.0
2018-Jan-03 18:59N 44°44' E 037°47'0 0.0
2018-Jan-03 18:29N 44°44' E 037°47'0 0.0
2018-Jan-03 17:59N 44°44' E 037°47'0 0.0
2018-Jan-03 17:29N 44°44' E 037°47'0 0.0
2018-Jan-03 16:59N 44°44' E 037°47'0 0.0
2018-Jan-03 16:29N 44°44' E 037°47'0 0.0
2018-Jan-03 15:59N 44°44' E 037°47'0 0.0
2018-Jan-03 15:29N 44°44' E 037°47'0 0.0
2018-Jan-03 14:59N 44°44' E 037°47'0 0.0
2018-Jan-03 14:29N 44°44' E 037°47'0 0.0
2018-Jan-03 13:59N 44°44' E 037°47'0 0.0
2018-Jan-03 13:29N 44°44' E 037°47'0 0.0
2018-Jan-03 12:59N 44°44' E 037°47'0 0.0
2018-Jan-03 12:29N 44°44' E 037°47'0 0.0
2018-Jan-03 10:26N 44°44' E 037°47'0 0.0
2018-Jan-03 09:59N 44°44' E 037°47'0 0.0
2018-Jan-03 09:29N 44°44' E 037°47'0 0.0
2018-Jan-03 08:59N 44°44' E 037°47'0 0.0
2018-Jan-03 08:29N 44°44' E 037°47'0 0.0
2018-Jan-03 07:59N 44°44' E 037°47'0 0.0
2018-Jan-03 07:29N 44°44' E 037°47'0 0.0
2018-Jan-03 06:59N 44°44' E 037°47'0 0.0
2018-Jan-03 06:29N 44°44' E 037°47'0 0.0
2018-Jan-03 05:59N 44°44' E 037°47'0 0.0
2018-Jan-03 05:29N 44°44' E 037°47'0 0.0
2018-Jan-03 04:59N 44°44' E 037°47'0 0.0
2018-Jan-03 04:29N 44°44' E 037°47'0 0.0
2018-Jan-03 03:59N 44°44' E 037°47'0 0.0
2018-Jan-03 03:29N 44°44' E 037°47'0 0.0
2018-Jan-03 02:59N 44°44' E 037°47'0 0.0
2018-Jan-03 02:29N 44°44' E 037°47'0 0.0
2018-Jan-03 01:59N 44°44' E 037°47'0 0.0
2018-Jan-03 01:29N 44°44' E 037°47'0 0.0
2018-Jan-03 00:59N 44°44' E 037°47'0 0.0
2018-Jan-03 00:29N 44°44' E 037°47'0 0.0
2018-Jan-02 23:59N 44°44' E 037°47'0 0.0
2018-Jan-02 23:29N 44°44' E 037°47'0 0.0
2018-Jan-02 22:59N 44°44' E 037°47'0 0.0
2018-Jan-02 22:29N 44°44' E 037°47'0 0.0
2018-Jan-02 21:59N 44°44' E 037°47'0 0.0
2018-Jan-02 21:29N 44°44' E 037°47'0 0.0
2018-Jan-02 20:59N 44°44' E 037°47'0 0.0
2018-Jan-02 20:29N 44°44' E 037°47'0 0.0
2018-Jan-02 19:59N 44°44' E 037°47'0 0.0
2018-Jan-02 19:29N 44°44' E 037°47'0 0.0
2018-Jan-02 18:53N 44°44' E 037°47'0 0.0
2018-Jan-02 18:29N 44°44' E 037°47'0 0.0
2018-Jan-02 17:59N 44°44' E 037°47'0 0.0
2018-Jan-02 17:29N 44°44' E 037°47'0 0.0
2018-Jan-02 16:59N 44°44' E 037°47'0 0.0
2018-Jan-02 16:29N 44°44' E 037°47'0 0.0
2018-Jan-02 15:59N 44°44' E 037°47'0 0.0
2018-Jan-02 15:30N 44°44' E 037°47'0 1.0
2018-Jan-02 15:01N 44°44' E 037°48'3 6.9
2018-Jan-02 14:30N 44°40' E 037°50'3 6.0
2018-Jan-02 14:01N 44°38' E 037°52'2 3.9
2018-Jan-02 13:31N 44°36' E 037°53'2 3.2
2018-Jan-02 12:58N 44°36' E 037°55'0 0.0
2018-Jan-02 12:25N 44°36' E 037°55'0 0.2
2018-Jan-02 11:58N 44°36' E 037°55'0 0.0
2018-Jan-02 11:28N 44°36' E 037°55'0 0.0
2018-Jan-02 10:58N 44°36' E 037°55'0 0.0
2018-Jan-02 10:28N 44°36' E 037°55'0 0.1
2018-Jan-02 09:58N 44°36' E 037°55'0 0.0
2018-Jan-02 09:28N 44°36' E 037°55'0 0.0
2018-Jan-02 08:28N 44°36' E 037°55'0 0.0
2018-Jan-02 07:58N 44°36' E 037°55'0 0.0
2018-Jan-02 07:28N 44°36' E 037°55'0 0.0
2018-Jan-02 06:52N 44°36' E 037°55'0 0.1
2018-Jan-02 06:28N 44°36' E 037°55'0 0.1
2018-Jan-02 05:58N 44°36' E 037°55'0 0.2
2018-Jan-02 05:28N 44°36' E 037°55'0 0.0
2018-Jan-02 04:28N 44°36' E 037°55'0 0.1
2018-Jan-02 03:58N 44°36' E 037°55'0 0.1
2018-Jan-02 03:25N 44°36' E 037°55'0 0.1
2018-Jan-02 02:58N 44°36' E 037°55'0 0.1
2018-Jan-02 02:28N 44°36' E 037°55'0 0.1
2018-Jan-02 01:58N 44°36' E 037°55'0 0.0
2018-Jan-02 01:28N 44°36' E 037°55'0 0.1
2018-Jan-02 00:58N 44°36' E 037°55'0 0.1
2018-Jan-02 00:28N 44°36' E 037°55'0 0.0
2018-Jan-01 23:58N 44°36' E 037°55'0 0.1
2018-Jan-01 23:28N 44°36' E 037°55'0 0.1
2018-Jan-01 22:58N 44°36' E 037°55'0 0.1
2018-Jan-01 22:28N 44°36' E 037°55'0 0.2
2018-Jan-01 21:58N 44°36' E 037°55'0 0.0
2018-Jan-01 21:28N 44°36' E 037°55'0 0.1
2018-Jan-01 20:58N 44°36' E 037°55'0 0.0
2018-Jan-01 20:28N 44°36' E 037°55'0 0.0
2018-Jan-01 19:58N 44°36' E 037°55'0 0.1
2018-Jan-01 19:28N 44°36' E 037°55'0 0.1
2018-Jan-01 18:58N 44°36' E 037°55'0 0.0
2018-Jan-01 18:28N 44°36' E 037°55'0 0.0
2018-Jan-01 17:58N 44°36' E 037°55'0 0.1
2018-Jan-01 17:28N 44°36' E 037°55'0 0.1
2018-Jan-01 14:58N 44°36' E 037°55'0 0.0
2018-Jan-01 14:28N 44°36' E 037°55'0 0.1
2018-Jan-01 13:58N 44°36' E 037°55'0 0.1
2018-Jan-01 13:28N 44°36' E 037°55'0 0.1
2018-Jan-01 12:58N 44°36' E 037°55'0 0.0
2018-Jan-01 11:58N 44°36' E 037°55'0 0.0
2018-Jan-01 11:28N 44°36' E 037°55'0 0.0
2018-Jan-01 10:58N 44°36' E 037°55'0 0.0
2018-Jan-01 10:28N 44°36' E 037°55'0 0.0
2018-Jan-01 09:58N 44°36' E 037°55'0 0.0
2018-Jan-01 09:28N 44°36' E 037°55'0 0.0
2018-Jan-01 08:28N 44°36' E 037°55'0 0.2
2018-Jan-01 07:58N 44°36' E 037°55'0 0.0
2018-Jan-01 07:19N 44°36' E 037°55'0 0.0
2018-Jan-01 06:58N 44°36' E 037°55'0 0.0
2018-Jan-01 05:58N 44°36' E 037°55'0 0.1
2018-Jan-01 05:28N 44°36' E 037°55'0 0.0
2018-Jan-01 04:58N 44°36' E 037°55'0 0.0
2018-Jan-01 03:58N 44°36' E 037°55'0 0.1
2018-Jan-01 03:28N 44°36' E 037°55'0 0.1
2018-Jan-01 02:58N 44°36' E 037°55'0 0.3
2018-Jan-01 02:28N 44°36' E 037°55'0 0.0
2018-Jan-01 01:58N 44°36' E 037°55'0 0.0
2018-Jan-01 01:28N 44°36' E 037°55'0 0.1
2018-Jan-01 00:28N 44°36' E 037°55'0 0.0
2017-Dec-31 20:58N 44°36' E 037°55'0 0.0
2017-Dec-31 20:28N 44°36' E 037°55'0 0.0
2017-Dec-31 19:58N 44°36' E 037°55'0 0.0
2017-Dec-31 19:28N 44°36' E 037°55'0 0.0
2017-Dec-31 18:58N 44°36' E 037°55'0 0.0
2017-Dec-31 18:28N 44°36' E 037°55'0 0.0
2017-Dec-31 17:58N 44°36' E 037°55'0 0.0
2017-Dec-31 17:28N 44°36' E 037°55'0 0.1
2017-Dec-31 16:58N 44°36' E 037°55'0 0.0
2017-Dec-31 16:28N 44°36' E 037°55'0 0.0
2017-Dec-31 15:58N 44°36' E 037°55'0 0.0
2017-Dec-31 15:28N 44°36' E 037°55'0 0.0
2017-Dec-31 14:58N 44°36' E 037°55'0 0.1
2017-Dec-31 14:28N 44°36' E 037°55'0 0.0
2017-Dec-31 13:58N 44°36' E 037°55'0 0.0
2017-Dec-31 13:28N 44°36' E 037°55'0 0.1
2017-Dec-31 12:58N 44°36' E 037°55'0 0.0
2017-Dec-31 12:28N 44°36' E 037°55'0 0.0
2017-Dec-31 11:58N 44°36' E 037°55'0 0.0
2017-Dec-31 11:28N 44°36' E 037°55'0 0.0
2017-Dec-31 10:55N 44°36' E 037°55'0 0.0
2017-Dec-31 10:28N 44°36' E 037°55'0 0.1
2017-Dec-31 09:58N 44°36' E 037°55'0 0.0
2017-Dec-31 09:28N 44°36' E 037°55'0 0.0
2017-Dec-31 08:58N 44°36' E 037°55'0 0.0
2017-Dec-31 08:28N 44°36' E 037°55'0 0.0
2017-Dec-31 07:58N 44°36' E 037°55'0 0.0
2017-Dec-31 07:28N 44°36' E 037°55'0 0.0
2017-Dec-31 06:58N 44°36' E 037°55'0 0.0
2017-Dec-31 06:28N 44°36' E 037°55'0 0.0
2017-Dec-31 05:58N 44°36' E 037°55'0 0.1
2017-Dec-31 05:28N 44°36' E 037°55'0 0.1
2017-Dec-31 04:58N 44°36' E 037°55'0 0.0
2017-Dec-31 04:28N 44°36' E 037°55'0 0.1
2017-Dec-31 03:58N 44°36' E 037°55'0 0.0
2017-Dec-31 03:28N 44°36' E 037°55'0 0.0
2017-Dec-31 02:58N 44°36' E 037°55'0 0.1
2017-Dec-31 02:28N 44°36' E 037°55'0 0.0
2017-Dec-31 01:58N 44°36' E 037°55'0 0.0
2017-Dec-31 01:28N 44°36' E 037°55'0 0.0
2017-Dec-31 00:58N 44°36' E 037°55'0 0.0
2017-Dec-31 00:28N 44°36' E 037°55'0 0.0
2017-Dec-30 23:58N 44°36' E 037°55'0 0.0
2017-Dec-30 23:28N 44°36' E 037°55'0 0.0
2017-Dec-30 22:58N 44°36' E 037°55'0 0.0
2017-Dec-30 22:28N 44°36' E 037°55'0 0.0
2017-Dec-30 21:58N 44°36' E 037°55'0 0.0
2017-Dec-30 21:28N 44°36' E 037°55'0 0.0
2017-Dec-30 20:58N 44°36' E 037°55'0 0.0
2017-Dec-30 20:28N 44°36' E 037°55'0 0.0
2017-Dec-30 19:58N 44°36' E 037°55'0 0.0
2017-Dec-30 19:28N 44°36' E 037°55'0 0.1
2017-Dec-30 18:58N 44°36' E 037°55'0 0.1
2017-Dec-30 18:28N 44°36' E 037°55'0 0.0
2017-Dec-30 17:58N 44°36' E 037°55'0 0.0
2017-Dec-30 17:28N 44°36' E 037°55'0 0.2
2017-Dec-30 16:58N 44°36' E 037°55'0 0.1
2017-Dec-30 16:28N 44°36' E 037°55'0 0.1
2017-Dec-30 15:58N 44°36' E 037°55'0 0.0
2017-Dec-30 15:28N 44°36' E 037°55'0 0.1
2017-Dec-30 14:58N 44°36' E 037°55'0 0.0
2017-Dec-30 14:28N 44°36' E 037°55'0 0.0
2017-Dec-30 13:58N 44°36' E 037°55'0 0.0
2017-Dec-30 13:28N 44°36' E 037°55'0 0.0
2017-Dec-30 12:58N 44°36' E 037°55'0 0.0
2017-Dec-30 12:25N 44°36' E 037°55'0 0.1
2017-Dec-30 11:58N 44°36' E 037°55'0 0.0
2017-Dec-30 11:28N 44°36' E 037°55'0 0.0
2017-Dec-30 10:58N 44°36' E 037°55'0 0.0
2017-Dec-30 10:28N 44°36' E 037°55'0 0.0
2017-Dec-30 09:58N 44°36' E 037°55'0 0.0
2017-Dec-30 09:28N 44°36' E 037°55'0 0.0
2017-Dec-30 08:58N 44°36' E 037°55'0 0.0
2017-Dec-30 08:28N 44°36' E 037°55'0 0.0
2017-Dec-30 07:58N 44°36' E 037°55'0 0.0
2017-Dec-30 07:28N 44°36' E 037°55'0 0.0
2017-Dec-30 06:58N 44°36' E 037°55'0 0.1
2017-Dec-30 06:28N 44°36' E 037°55'0 0.0
2017-Dec-30 05:58N 44°36' E 037°55'  
Track history (hours):
 
Tides and Currents Weather Stations Pressure Air Temp Water Temp Dewpoint Dewpoint Depression Visibility Wind Speed Wind Dir Waves Ship Positions

Predator

Last reported at 2018-Jan-09 05:31 UTC. Time now 2018-Jan-19 17:43 UTC.
Position N 34°51' E 028°32'.
Warning: this ship's position is 10 days out of date.

Length 170 m; draft 9.8 m.

Type: Cargo ship. MMSI: 636017887.

Date/timePositionNaut miles runAvg speedWind from/ knotsBaromVisibWave heightAir tempDewpointWater temp
2018-Jan-09 05:31N 34°51' E 028°32'012.5
2018-Jan-09 05:30N 34°52' E 028°32'612.8
2018-Jan-09 05:00N 34°57' E 028°27'3612.6
2018-Jan-09 02:07N 35°24' E 027°57'112.7
2018-Jan-09 02:00N 35°25' E 027°56'712.7
2018-Jan-09 01:29N 35°30' E 027°51'812.7
2018-Jan-09 00:51N 35°36' E 027°44'512.6
2018-Jan-09 00:29N 35°39' E 027°40'6912.7
2018-Jan-08 19:03N 36°31' E 026°43'112.7
2018-Jan-08 19:00N 36°31' E 026°43'612.2
2018-Jan-08 18:28N 36°36' E 026°37'612.4
2018-Jan-08 18:00N 36°40' E 026°32'612.2
2018-Jan-08 17:30N 36°44' E 026°27'612.7
2018-Jan-08 17:00N 36°49' E 026°22'612.6
2018-Jan-08 16:30N 36°54' E 026°17'612.7
2018-Jan-08 16:00N 36°59' E 026°12'612.4
2018-Jan-08 15:30N 37°05' E 026°08'612.6
2018-Jan-08 15:00N 37°10' E 026°05'612.5
2018-Jan-08 14:30N 37°15' E 026°01'612.5
2018-Jan-08 14:00N 37°21' E 025°57'612.8
2018-Jan-08 13:30N 37°27' E 025°54'612.6
2018-Jan-08 13:00N 37°33' E 025°51'612.8
2018-Jan-08 12:30N 37°38' E 025°47'612.8
2018-Jan-08 12:00N 37°44' E 025°43'612.7
2018-Jan-08 11:30N 37°50' E 025°40'612.5
2018-Jan-08 11:00N 37°55' E 025°36'612.6
2018-Jan-08 10:30N 38°01' E 025°33'612.6
2018-Jan-08 10:00N 38°06' E 025°29'612.5
2018-Jan-08 09:30N 38°12' E 025°26'311 8.0
2018-Jan-06 18:33N 41°54' E 030°10'112.6
2018-Jan-06 18:30N 41°55' E 030°11'712.5
2018-Jan-06 17:59N 41°57' E 030°19'612.6
2018-Jan-06 17:30N 41°60' E 030°26'612.6
2018-Jan-06 17:00N 42°02' E 030°34'612.4
2018-Jan-06 16:30N 42°05' E 030°41'612.4
2018-Jan-06 16:00N 42°08' E 030°49'612.4
2018-Jan-06 15:29N 42°11' E 030°56'2413.1
2018-Jan-06 13:39N 42°21' E 031°26'213.4
2018-Jan-06 13:30N 42°22' E 031°28'713.0
2018-Jan-06 12:57N 42°25' E 031°37'1412.7
2018-Jan-06 11:50N 42°31' E 031°54'412.4
2018-Jan-06 11:30N 42°33' E 031°59'26312.6
2018-Jan-05 14:33N 44°27' E 037°27'412.5
2018-Jan-05 14:16N 44°28' E 037°31'312.4
2018-Jan-05 14:00N 44°30' E 037°35'612.5
2018-Jan-05 13:30N 44°32' E 037°43'612.4
2018-Jan-05 13:00N 44°37' E 037°49'4 7.0
2018-Jan-05 12:30N 44°40' E 037°51'0 0.7
2018-Jan-05 11:59N 44°41' E 037°51'0 0.1
2018-Jan-05 11:29N 44°41' E 037°51'0 0.0
2018-Jan-05 10:59N 44°41' E 037°51'0 0.1
2018-Jan-05 10:29N 44°41' E 037°51'0 0.1
2018-Jan-05 09:59N 44°41' E 037°51'0 0.1
2018-Jan-05 09:29N 44°41' E 037°51'0 0.1
2018-Jan-05 08:59N 44°41' E 037°51'0 0.1
2018-Jan-05 08:29N 44°41' E 037°51'0 0.0
2018-Jan-05 07:59N 44°41' E 037°51'0 0.0
2018-Jan-05 07:29N 44°41' E 037°51'0 0.1
2018-Jan-05 06:59N 44°41' E 037°51'0 0.0
2018-Jan-05 06:26N 44°41' E 037°51'0 0.0
2018-Jan-05 05:59N 44°41' E 037°51'0 0.1
2018-Jan-05 05:30N 44°41' E 037°51'0 0.1
2018-Jan-05 05:01N 44°41' E 037°51'0 0.1
2018-Jan-05 04:31N 44°41' E 037°51'0 0.2
2018-Jan-05 04:01N 44°41' E 037°51'0 0.2
2018-Jan-05 03:30N 44°41' E 037°51'2 4.3
2018-Jan-05 03:01N 44°42' E 037°49'2 3.6
2018-Jan-05 02:31N 44°44' E 037°47'0 0.2
2018-Jan-05 01:59N 44°44' E 037°47'0 0.0
2018-Jan-05 01:29N 44°44' E 037°47'0 0.0
2018-Jan-05 00:59N 44°44' E 037°47'0 0.0
2018-Jan-05 00:29N 44°44' E 037°47'0 0.0
2018-Jan-04 23:59N 44°44' E 037°47'0 0.0
2018-Jan-04 23:29N 44°44' E 037°47'0 0.0
2018-Jan-04 22:59N 44°44' E 037°47'0 0.0
2018-Jan-04 22:29N 44°44' E 037°47'0 0.0
2018-Jan-04 21:59N 44°44' E 037°47'0 0.0
2018-Jan-04 21:29N 44°44' E 037°47'0 0.0
2018-Jan-04 20:59N 44°44' E 037°47'0 0.0
2018-Jan-04 20:29N 44°44' E 037°47'0 0.0
2018-Jan-04 19:59N 44°44' E 037°47'0 0.0
2018-Jan-04 19:29N 44°44' E 037°47'0 0.0
2018-Jan-04 18:59N 44°44' E 037°47'0 0.0
2018-Jan-04 18:29N 44°44' E 037°47'0 0.0
2018-Jan-04 17:59N 44°44' E 037°47'0 0.0
2018-Jan-04 17:29N 44°44' E 037°47'0 0.0
2018-Jan-04 16:59N 44°44' E 037°47'0 0.0
2018-Jan-04 16:29N 44°44' E 037°47'0 0.0
2018-Jan-04 15:59N 44°44' E 037°47'0 0.0
2018-Jan-04 15:29N 44°44' E 037°47'0 0.0
2018-Jan-04 14:59N 44°44' E 037°47'0 0.0
2018-Jan-04 14:29N 44°44' E 037°47'0 0.0
2018-Jan-04 13:59N 44°44' E 037°47'0 0.0
2018-Jan-04 13:29N 44°44' E 037°47'0 0.0
2018-Jan-04 12:59N 44°44' E 037°47'0 0.0
2018-Jan-04 12:29N 44°44' E 037°47'0 0.0
2018-Jan-04 11:59N 44°44' E 037°47'0 0.0
2018-Jan-04 11:29N 44°44' E 037°47'0 0.0
2018-Jan-04 10:59N 44°44' E 037°47'0 0.0
2018-Jan-04 10:29N 44°44' E 037°47'0 0.0
2018-Jan-04 09:59N 44°44' E 037°47'0 0.0
2018-Jan-04 09:29N 44°44' E 037°47'0 0.0
2018-Jan-04 08:59N 44°44' E 037°47'0 0.0
2018-Jan-04 08:29N 44°44' E 037°47'0 0.0
2018-Jan-04 07:59N 44°44' E 037°47'0 0.0
2018-Jan-04 07:26N 44°44' E 037°47'0 0.0
2018-Jan-04 06:59N 44°44' E 037°47'0 0.0
2018-Jan-04 06:29N 44°44' E 037°47'0 0.0
2018-Jan-04 05:59N 44°44' E 037°47'0 0.0
2018-Jan-04 05:29N 44°44' E 037°47'0 0.0
2018-Jan-04 04:59N 44°44' E 037°47'0 0.0
2018-Jan-04 04:29N 44°44' E 037°47'0 0.0
2018-Jan-04 03:59N 44°44' E 037°47'0 0.0
2018-Jan-04 03:29N 44°44' E 037°47'0 0.0
2018-Jan-04 02:59N 44°44' E 037°47'0 0.0
2018-Jan-04 02:29N 44°44' E 037°47'0 0.0
2018-Jan-04 01:38N 44°44' E 037°47'0 0.0
2018-Jan-04 01:29N 44°44' E 037°47'0 0.0
2018-Jan-04 00:59N 44°44' E 037°47'0 0.0
2018-Jan-04 00:29N 44°44' E 037°47'0 0.0
2018-Jan-03 23:59N 44°44' E 037°47'0 0.0
2018-Jan-03 23:29N 44°44' E 037°47'0 0.0
2018-Jan-03 22:59N 44°44' E 037°47'0 0.0
2018-Jan-03 22:29N 44°44' E 037°47'0 0.0
2018-Jan-03 21:59N 44°44' E 037°47'0 0.0
2018-Jan-03 21:29N 44°44' E 037°47'0 0.0
2018-Jan-03 20:59N 44°44' E 037°47'0 0.0
2018-Jan-03 20:29N 44°44' E 037°47'0 0.0
2018-Jan-03 19:59N 44°44' E 037°47'0 0.0
2018-Jan-03 19:29N 44°44' E 037°47'0 0.0
2018-Jan-03 18:59N 44°44' E 037°47'0 0.0
2018-Jan-03 18:29N 44°44' E 037°47'0 0.0
2018-Jan-03 17:59N 44°44' E 037°47'0 0.0
2018-Jan-03 17:29N 44°44' E 037°47'0 0.0
2018-Jan-03 16:59N 44°44' E 037°47'0 0.0
2018-Jan-03 16:29N 44°44' E 037°47'0 0.0
2018-Jan-03 15:59N 44°44' E 037°47'0 0.0
2018-Jan-03 15:29N 44°44' E 037°47'0 0.0
2018-Jan-03 14:59N 44°44' E 037°47'0 0.0
2018-Jan-03 14:29N 44°44' E 037°47'0 0.0
2018-Jan-03 13:59N 44°44' E 037°47'0 0.0
2018-Jan-03 13:29N 44°44' E 037°47'0 0.0
2018-Jan-03 12:59N 44°44' E 037°47'0 0.0
2018-Jan-03 12:29N 44°44' E 037°47'0 0.0
2018-Jan-03 10:26N 44°44' E 037°47'0 0.0
2018-Jan-03 09:59N 44°44' E 037°47'0 0.0
2018-Jan-03 09:29N 44°44' E 037°47'0 0.0
2018-Jan-03 08:59N 44°44' E 037°47'0 0.0
2018-Jan-03 08:29N 44°44' E 037°47'0 0.0
2018-Jan-03 07:59N 44°44' E 037°47'0 0.0
2018-Jan-03 07:29N 44°44' E 037°47'0 0.0
2018-Jan-03 06:59N 44°44' E 037°47'0 0.0
2018-Jan-03 06:29N 44°44' E 037°47'0 0.0
2018-Jan-03 05:59N 44°44' E 037°47'0 0.0
2018-Jan-03 05:29N 44°44' E 037°47'0 0.0
2018-Jan-03 04:59N 44°44' E 037°47'0 0.0
2018-Jan-03 04:29N 44°44' E 037°47'0 0.0
2018-Jan-03 03:59N 44°44' E 037°47'0 0.0
2018-Jan-03 03:29N 44°44' E 037°47'0 0.0
2018-Jan-03 02:59N 44°44' E 037°47'0 0.0
2018-Jan-03 02:29N 44°44' E 037°47'0 0.0
2018-Jan-03 01:59N 44°44' E 037°47'0 0.0
2018-Jan-03 01:29N 44°44' E 037°47'0 0.0
2018-Jan-03 00:59N 44°44' E 037°47'0 0.0
2018-Jan-03 00:29N 44°44' E 037°47'0 0.0
2018-Jan-02 23:59N 44°44' E 037°47'0 0.0
2018-Jan-02 23:29N 44°44' E 037°47'0 0.0
2018-Jan-02 22:59N 44°44' E 037°47'0 0.0
2018-Jan-02 22:29N 44°44' E 037°47'0 0.0
2018-Jan-02 21:59N 44°44' E 037°47'0 0.0
2018-Jan-02 21:29N 44°44' E 037°47'0 0.0
2018-Jan-02 20:59N 44°44' E 037°47'0 0.0
2018-Jan-02 20:29N 44°44' E 037°47'0 0.0
2018-Jan-02 19:59N 44°44' E 037°47'0 0.0
2018-Jan-02 19:29N 44°44' E 037°47'0 0.0
2018-Jan-02 18:53N 44°44' E 037°47'0 0.0
2018-Jan-02 18:29N 44°44' E 037°47'0 0.0
2018-Jan-02 17:59N 44°44' E 037°47'0 0.0
2018-Jan-02 17:29N 44°44' E 037°47'0 0.0
2018-Jan-02 16:59N 44°44' E 037°47'0 0.0
2018-Jan-02 16:29N 44°44' E 037°47'0 0.0
2018-Jan-02 15:59N 44°44' E 037°47'0 0.0
2018-Jan-02 15:30N 44°44' E 037°47'0 1.0
2018-Jan-02 15:01N 44°44' E 037°48'3 6.9
2018-Jan-02 14:30N 44°40' E 037°50'3 6.0
2018-Jan-02 14:01N 44°38' E 037°52'2 3.9
2018-Jan-02 13:31N 44°36' E 037°53'2 3.2
2018-Jan-02 12:58N 44°36' E 037°55'0 0.0
2018-Jan-02 12:25N 44°36' E 037°55'0 0.2
2018-Jan-02 11:58N 44°36' E 037°55'0 0.0
2018-Jan-02 11:28N 44°36' E 037°55'0 0.0
2018-Jan-02 10:58N 44°36' E 037°55'0 0.0
2018-Jan-02 10:28N 44°36' E 037°55'0 0.1
2018-Jan-02 09:58N 44°36' E 037°55'0 0.0
2018-Jan-02 09:28N 44°36' E 037°55'0 0.0
2018-Jan-02 08:28N 44°36' E 037°55'0 0.0
2018-Jan-02 07:58N 44°36' E 037°55'0 0.0
2018-Jan-02 07:28N 44°36' E 037°55'0 0.0
2018-Jan-02 06:52N 44°36' E 037°55'0 0.1
2018-Jan-02 06:28N 44°36' E 037°55'0 0.1
2018-Jan-02 05:58N 44°36' E 037°55'0 0.2
2018-Jan-02 05:28N 44°36' E 037°55'0 0.0
2018-Jan-02 04:28N 44°36' E 037°55'0 0.1
2018-Jan-02 03:58N 44°36' E 037°55'0 0.1
2018-Jan-02 03:25N 44°36' E 037°55'0 0.1
2018-Jan-02 02:58N 44°36' E 037°55'0 0.1
2018-Jan-02 02:28N 44°36' E 037°55'0 0.1
2018-Jan-02 01:58N 44°36' E 037°55'0 0.0
2018-Jan-02 01:28N 44°36' E 037°55'0 0.1
2018-Jan-02 00:58N 44°36' E 037°55'0 0.1
2018-Jan-02 00:28N 44°36' E 037°55'0 0.0
2018-Jan-01 23:58N 44°36' E 037°55'0 0.1
2018-Jan-01 23:28N 44°36' E 037°55'0 0.1
2018-Jan-01 22:58N 44°36' E 037°55'0 0.1
2018-Jan-01 22:28N 44°36' E 037°55'0 0.2
2018-Jan-01 21:58N 44°36' E 037°55'0 0.0
2018-Jan-01 21:28N 44°36' E 037°55'0 0.1
2018-Jan-01 20:58N 44°36' E 037°55'0 0.0
2018-Jan-01 20:28N 44°36' E 037°55'0 0.0
2018-Jan-01 19:58N 44°36' E 037°55'0 0.1
2018-Jan-01 19:28N 44°36' E 037°55'0 0.1
2018-Jan-01 18:58N 44°36' E 037°55'0 0.0
2018-Jan-01 18:28N 44°36' E 037°55'0 0.0
2018-Jan-01 17:58N 44°36' E 037°55'0 0.1
2018-Jan-01 17:28N 44°36' E 037°55'0 0.1
2018-Jan-01 14:58N 44°36' E 037°55'0 0.0
2018-Jan-01 14:28N 44°36' E 037°55'0 0.1
2018-Jan-01 13:58N 44°36' E 037°55'0 0.1
2018-Jan-01 13:28N 44°36' E 037°55'0 0.1
2018-Jan-01 12:58N 44°36' E 037°55'0 0.0
2018-Jan-01 11:58N 44°36' E 037°55'0 0.0
2018-Jan-01 11:28N 44°36' E 037°55'0 0.0
2018-Jan-01 10:58N 44°36' E 037°55'0 0.0
2018-Jan-01 10:28N 44°36' E 037°55'0 0.0
2018-Jan-01 09:58N 44°36' E 037°55'0 0.0
2018-Jan-01 09:28N 44°36' E 037°55'0 0.0
2018-Jan-01 08:28N 44°36' E 037°55'0 0.2
2018-Jan-01 07:58N 44°36' E 037°55'0 0.0
2018-Jan-01 07:19N 44°36' E 037°55'0 0.0
2018-Jan-01 06:58N 44°36' E 037°55'0 0.0
2018-Jan-01 05:58N 44°36' E 037°55'0 0.1
2018-Jan-01 05:28N 44°36' E 037°55'0 0.0
2018-Jan-01 04:58N 44°36' E 037°55'0 0.0
2018-Jan-01 03:58N 44°36' E 037°55'0 0.1
2018-Jan-01 03:28N 44°36' E 037°55'0 0.1
2018-Jan-01 02:58N 44°36' E 037°55'0 0.3
2018-Jan-01 02:28N 44°36' E 037°55'0 0.0
2018-Jan-01 01:58N 44°36' E 037°55'0 0.0
2018-Jan-01 01:28N 44°36' E 037°55'0 0.1
2018-Jan-01 00:28N 44°36' E 037°55'0 0.0
2017-Dec-31 20:58N 44°36' E 037°55'0 0.0
2017-Dec-31 20:28N 44°36' E 037°55'0 0.0
2017-Dec-31 19:58N 44°36' E 037°55'0 0.0
2017-Dec-31 19:28N 44°36' E 037°55'0 0.0
2017-Dec-31 18:58N 44°36' E 037°55'0 0.0
2017-Dec-31 18:28N 44°36' E 037°55'0 0.0
2017-Dec-31 17:58N 44°36' E 037°55'0 0.0
2017-Dec-31 17:28N 44°36' E 037°55'0 0.1
2017-Dec-31 16:58N 44°36' E 037°55'0 0.0
2017-Dec-31 16:28N 44°36' E 037°55'0 0.0
2017-Dec-31 15:58N 44°36' E 037°55'0 0.0
2017-Dec-31 15:28N 44°36' E 037°55'0 0.0
2017-Dec-31 14:58N 44°36' E 037°55'0 0.1
2017-Dec-31 14:28N 44°36' E 037°55'0 0.0
2017-Dec-31 13:58N 44°36' E 037°55'0 0.0
2017-Dec-31 13:28N 44°36' E 037°55'0 0.1
2017-Dec-31 12:58N 44°36' E 037°55'0 0.0
2017-Dec-31 12:28N 44°36' E 037°55'0 0.0
2017-Dec-31 11:58N 44°36' E 037°55'0 0.0
2017-Dec-31 11:28N 44°36' E 037°55'0 0.0
2017-Dec-31 10:55N 44°36' E 037°55'0 0.0
2017-Dec-31 10:28N 44°36' E 037°55'0 0.1
2017-Dec-31 09:58N 44°36' E 037°55'0 0.0
2017-Dec-31 09:28N 44°36' E 037°55'0 0.0
2017-Dec-31 08:58N 44°36' E 037°55'0 0.0
2017-Dec-31 08:28N 44°36' E 037°55'0 0.0
2017-Dec-31 07:58N 44°36' E 037°55'0 0.0
2017-Dec-31 07:28N 44°36' E 037°55'0 0.0
2017-Dec-31 06:58N 44°36' E 037°55'0 0.0
2017-Dec-31 06:28N 44°36' E 037°55'0 0.0
2017-Dec-31 05:58N 44°36' E 037°55'0 0.1
2017-Dec-31 05:28N 44°36' E 037°55'0 0.1
2017-Dec-31 04:58N 44°36' E 037°55'0 0.0
2017-Dec-31 04:28N 44°36' E 037°55'0 0.1
2017-Dec-31 03:58N 44°36' E 037°55'0 0.0
2017-Dec-31 03:28N 44°36' E 037°55'0 0.0
2017-Dec-31 02:58N 44°36' E 037°55'0 0.1
2017-Dec-31 02:28N 44°36' E 037°55'0 0.0
2017-Dec-31 01:58N 44°36' E 037°55'0 0.0
2017-Dec-31 01:28N 44°36' E 037°55'0 0.0
2017-Dec-31 00:58N 44°36' E 037°55'0 0.0
2017-Dec-31 00:28N 44°36' E 037°55'0 0.0
2017-Dec-30 23:58N 44°36' E 037°55'0 0.0
2017-Dec-30 23:28N 44°36' E 037°55'0 0.0
2017-Dec-30 22:58N 44°36' E 037°55'0 0.0
2017-Dec-30 22:28N 44°36' E 037°55'0 0.0
2017-Dec-30 21:58N 44°36' E 037°55'0 0.0
2017-Dec-30 21:28N 44°36' E 037°55'0 0.0
2017-Dec-30 20:58N 44°36' E 037°55'0 0.0
2017-Dec-30 20:28N 44°36' E 037°55'0 0.0
2017-Dec-30 19:58N 44°36' E 037°55'0 0.0
2017-Dec-30 19:28N 44°36' E 037°55'0 0.1
2017-Dec-30 18:58N 44°36' E 037°55'0 0.1
2017-Dec-30 18:28N 44°36' E 037°55'0 0.0
2017-Dec-30 17:58N 44°36' E 037°55'0 0.0
2017-Dec-30 17:28N 44°36' E 037°55'0 0.2
2017-Dec-30 16:58N 44°36' E 037°55'0 0.1
2017-Dec-30 16:28N 44°36' E 037°55'0 0.1
2017-Dec-30 15:58N 44°36' E 037°55'0 0.0
2017-Dec-30 15:28N 44°36' E 037°55'0 0.1
2017-Dec-30 14:58N 44°36' E 037°55'0 0.0
2017-Dec-30 14:28N 44°36' E 037°55'0 0.0
2017-Dec-30 13:58N 44°36' E 037°55'0 0.0
2017-Dec-30 13:28N 44°36' E 037°55'0 0.0
2017-Dec-30 12:58N 44°36' E 037°55'0 0.0
2017-Dec-30 12:25N 44°36' E 037°55'0 0.1
2017-Dec-30 11:58N 44°36' E 037°55'0 0.0
2017-Dec-30 11:28N 44°36' E 037°55'0 0.0
2017-Dec-30 10:58N 44°36' E 037°55'0 0.0
2017-Dec-30 10:28N 44°36' E 037°55'0 0.0
2017-Dec-30 09:58N 44°36' E 037°55'0 0.0
2017-Dec-30 09:28N 44°36' E 037°55'0 0.0
2017-Dec-30 08:58N 44°36' E 037°55'0 0.0
2017-Dec-30 08:28N 44°36' E 037°55'0 0.0
2017-Dec-30 07:58N 44°36' E 037°55'0 0.0
2017-Dec-30 07:28N 44°36' E 037°55'0 0.0
2017-Dec-30 06:58N 44°36' E 037°55'0 0.1
2017-Dec-30 06:28N 44°36' E 037°55'0 0.0
2017-Dec-30 05:58N 44°36' E 037°55'  

Dump ship's entire track history